sensor_id;sensor_type;location;lat;lon;timestamp;P1;durP1;ratioP1;P2;durP2;ratioP2
53801;SDS011;39709;53.334;6.534;2022-10-17T00:00:42;14.88;;;6.10;;
53801;SDS011;39709;53.334;6.534;2022-10-17T00:03:08;14.97;;;5.63;;
53801;SDS011;39709;53.334;6.534;2022-10-17T00:05:37;10.27;;;4.10;;
53801;SDS011;39709;53.334;6.534;2022-10-17T00:08:04;10.70;;;3.33;;
53801;SDS011;39709;53.334;6.534;2022-10-17T00:10:30;11.17;;;4.47;;
53801;SDS011;39709;53.334;6.534;2022-10-17T00:12:55;10.70;;;4.20;;
53801;SDS011;39709;53.334;6.534;2022-10-17T00:15:21;8.73;;;3.70;;
53801;SDS011;39709;53.334;6.534;2022-10-17T00:17:47;11.07;;;4.13;;
53801;SDS011;39709;53.334;6.534;2022-10-17T00:20:13;9.47;;;4.30;;
53801;SDS011;39709;53.334;6.534;2022-10-17T00:22:39;11.23;;;4.38;;
53801;SDS011;39709;53.334;6.534;2022-10-17T00:25:05;9.80;;;4.13;;
53801;SDS011;39709;53.334;6.534;2022-10-17T00:27:33;8.95;;;3.60;;
53801;SDS011;39709;53.334;6.534;2022-10-17T00:30:00;8.85;;;2.70;;
53801;SDS011;39709;53.334;6.534;2022-10-17T00:32:26;10.43;;;3.47;;
53801;SDS011;39709;53.334;6.534;2022-10-17T00:34:51;10.73;;;3.43;;
53801;SDS011;39709;53.334;6.534;2022-10-17T00:37:17;10.03;;;4.10;;
53801;SDS011;39709;53.334;6.534;2022-10-17T00:39:43;12.95;;;4.10;;
53801;SDS011;39709;53.334;6.534;2022-10-17T00:42:11;12.43;;;4.43;;
53801;SDS011;39709;53.334;6.534;2022-10-17T00:47:08;12.68;;;4.70;;
53801;SDS011;39709;53.334;6.534;2022-10-17T00:49:38;11.30;;;4.75;;
53801;SDS011;39709;53.334;6.534;2022-10-17T00:52:08;10.90;;;4.30;;
53801;SDS011;39709;53.334;6.534;2022-10-17T00:54:40;12.88;;;4.40;;
53801;SDS011;39709;53.334;6.534;2022-10-17T00:57:09;11.57;;;3.95;;
53801;SDS011;39709;53.334;6.534;2022-10-17T00:59:35;11.20;;;4.20;;
53801;SDS011;39709;53.334;6.534;2022-10-17T01:02:08;9.88;;;4.20;;
53801;SDS011;39709;53.334;6.534;2022-10-17T01:04:38;10.90;;;3.50;;
53801;SDS011;39709;53.334;6.534;2022-10-17T01:07:06;13.73;;;3.70;;
53801;SDS011;39709;53.334;6.534;2022-10-17T01:09:32;9.10;;;3.63;;
53801;SDS011;39709;53.334;6.534;2022-10-17T01:12:00;10.32;;;3.47;;
53801;SDS011;39709;53.334;6.534;2022-10-17T01:31:15;9.27;;;3.33;;
53801;SDS011;39709;53.334;6.534;2022-10-17T01:36:21;12.27;;;4.20;;
53801;SDS011;39709;53.334;6.534;2022-10-17T01:39:09;12.20;;;4.43;;
53801;SDS011;39709;53.334;6.534;2022-10-17T01:41:56;11.52;;;4.20;;
53801;SDS011;39709;53.334;6.534;2022-10-17T01:47:13;10.73;;;3.85;;
53801;SDS011;39709;53.334;6.534;2022-10-17T01:49:43;8.52;;;3.88;;
53801;SDS011;39709;53.334;6.534;2022-10-17T01:52:14;10.03;;;3.37;;
53801;SDS011;39709;53.334;6.534;2022-10-17T01:54:44;8.73;;;3.92;;
53801;SDS011;39709;53.334;6.534;2022-10-17T01:59:53;14.45;;;7.95;;
53801;SDS011;39709;53.334;6.534;2022-10-17T02:02:20;16.67;;;6.72;;
53801;SDS011;39709;53.334;6.534;2022-10-17T02:04:48;8.07;;;3.63;;
53801;SDS011;39709;53.334;6.534;2022-10-17T02:07:16;21.10;;;9.23;;
53801;SDS011;39709;53.334;6.534;2022-10-17T02:09:42;12.20;;;4.97;;
53801;SDS011;39709;53.334;6.534;2022-10-17T02:17:29;13.65;;;5.57;;
53801;SDS011;39709;53.334;6.534;2022-10-17T02:23:02;14.80;;;8.35;;
53801;SDS011;39709;53.334;6.534;2022-10-17T02:28:41;15.90;;;6.25;;
53801;SDS011;39709;53.334;6.534;2022-10-17T02:31:34;11.27;;;6.75;;
53801;SDS011;39709;53.334;6.534;2022-10-17T02:34:03;14.80;;;6.80;;
53801;SDS011;39709;53.334;6.534;2022-10-17T02:36:44;8.95;;;3.88;;
53801;SDS011;39709;53.334;6.534;2022-10-17T02:39:20;13.13;;;4.80;;
53801;SDS011;39709;53.334;6.534;2022-10-17T02:41:48;10.13;;;4.50;;
53801;SDS011;39709;53.334;6.534;2022-10-17T02:44:15;12.35;;;5.20;;
53801;SDS011;39709;53.334;6.534;2022-10-17T02:46:41;5.50;;;2.50;;
53801;SDS011;39709;53.334;6.534;2022-10-17T02:49:15;13.13;;;5.95;;
53801;SDS011;39709;53.334;6.534;2022-10-17T02:51:53;12.70;;;5.27;;
53801;SDS011;39709;53.334;6.534;2022-10-17T02:54:27;11.73;;;6.20;;
53801;SDS011;39709;53.334;6.534;2022-10-17T02:57:18;13.25;;;6.03;;
53801;SDS011;39709;53.334;6.534;2022-10-17T02:59:50;11.52;;;6.10;;
53801;SDS011;39709;53.334;6.534;2022-10-17T03:02:16;10.23;;;3.50;;
53801;SDS011;39709;53.334;6.534;2022-10-17T03:04:44;10.67;;;4.77;;
53801;SDS011;39709;53.334;6.534;2022-10-17T03:07:11;9.88;;;4.05;;
53801;SDS011;39709;53.334;6.534;2022-10-17T03:09:37;10.57;;;4.32;;
53801;SDS011;39709;53.334;6.534;2022-10-17T03:12:03;9.63;;;4.27;;
53801;SDS011;39709;53.334;6.534;2022-10-17T03:14:29;8.57;;;3.72;;
53801;SDS011;39709;53.334;6.534;2022-10-17T03:16:55;10.38;;;4.40;;
53801;SDS011;39709;53.334;6.534;2022-10-17T03:19:20;15.40;;;5.90;;
53801;SDS011;39709;53.334;6.534;2022-10-17T03:21:46;12.83;;;6.13;;
53801;SDS011;39709;53.334;6.534;2022-10-17T03:24:12;9.30;;;5.00;;
53801;SDS011;39709;53.334;6.534;2022-10-17T03:26:37;8.55;;;3.70;;
53801;SDS011;39709;53.334;6.534;2022-10-17T03:29:03;8.57;;;4.00;;
53801;SDS011;39709;53.334;6.534;2022-10-17T03:31:29;10.88;;;4.32;;
53801;SDS011;39709;53.334;6.534;2022-10-17T03:33:54;12.50;;;5.80;;
53801;SDS011;39709;53.334;6.534;2022-10-17T03:36:20;10.87;;;6.27;;
53801;SDS011;39709;53.334;6.534;2022-10-17T03:38:46;7.63;;;2.83;;
53801;SDS011;39709;53.334;6.534;2022-10-17T03:41:12;8.60;;;3.80;;
53801;SDS011;39709;53.334;6.534;2022-10-17T03:43:38;11.98;;;5.65;;
53801;SDS011;39709;53.334;6.534;2022-10-17T03:46:04;9.53;;;5.73;;
53801;SDS011;39709;53.334;6.534;2022-10-17T03:48:31;11.90;;;6.82;;
53801;SDS011;39709;53.334;6.534;2022-10-17T03:51:00;13.65;;;6.60;;
53801;SDS011;39709;53.334;6.534;2022-10-17T03:53:28;10.05;;;5.55;;
53801;SDS011;39709;53.334;6.534;2022-10-17T03:55:54;14.63;;;6.60;;
53801;SDS011;39709;53.334;6.534;2022-10-17T03:58:20;11.18;;;6.47;;
53801;SDS011;39709;53.334;6.534;2022-10-17T04:00:46;16.20;;;7.43;;
53801;SDS011;39709;53.334;6.534;2022-10-17T04:03:12;11.55;;;6.57;;
53801;SDS011;39709;53.334;6.534;2022-10-17T04:05:37;13.30;;;6.60;;
53801;SDS011;39709;53.334;6.534;2022-10-17T04:08:03;11.80;;;5.63;;
53801;SDS011;39709;53.334;6.534;2022-10-17T04:10:29;5.85;;;2.20;;
53801;SDS011;39709;53.334;6.534;2022-10-17T04:12:55;8.80;;;3.47;;
53801;SDS011;39709;53.334;6.534;2022-10-17T04:15:20;9.10;;;4.55;;
53801;SDS011;39709;53.334;6.534;2022-10-17T04:17:46;15.03;;;8.17;;
53801;SDS011;39709;53.334;6.534;2022-10-17T04:20:12;14.23;;;7.97;;
53801;SDS011;39709;53.334;6.534;2022-10-17T04:22:37;14.80;;;7.15;;
53801;SDS011;39709;53.334;6.534;2022-10-17T04:25:03;13.02;;;7.93;;
53801;SDS011;39709;53.334;6.534;2022-10-17T04:27:29;13.73;;;7.90;;
53801;SDS011;39709;53.334;6.534;2022-10-17T04:29:55;13.98;;;7.65;;
53801;SDS011;39709;53.334;6.534;2022-10-17T04:32:20;14.63;;;7.50;;
53801;SDS011;39709;53.334;6.534;2022-10-17T04:34:49;16.55;;;9.40;;
53801;SDS011;39709;53.334;6.534;2022-10-17T04:37:15;16.33;;;8.77;;
53801;SDS011;39709;53.334;6.534;2022-10-17T04:39:41;16.40;;;8.90;;
53801;SDS011;39709;53.334;6.534;2022-10-17T04:42:06;15.60;;;8.37;;
53801;SDS011;39709;53.334;6.534;2022-10-17T04:44:32;16.83;;;9.48;;
53801;SDS011;39709;53.334;6.534;2022-10-17T04:46:59;14.70;;;8.50;;
53801;SDS011;39709;53.334;6.534;2022-10-17T04:49:25;16.40;;;9.47;;
53801;SDS011;39709;53.334;6.534;2022-10-17T04:51:51;12.93;;;8.05;;
53801;SDS011;39709;53.334;6.534;2022-10-17T04:54:16;15.70;;;7.27;;
53801;SDS011;39709;53.334;6.534;2022-10-17T04:56:42;12.90;;;8.05;;
53801;SDS011;39709;53.334;6.534;2022-10-17T04:59:08;14.03;;;9.10;;
53801;SDS011;39709;53.334;6.534;2022-10-17T05:01:33;15.47;;;9.03;;
53801;SDS011;39709;53.334;6.534;2022-10-17T05:03:59;14.88;;;8.85;;
53801;SDS011;39709;53.334;6.534;2022-10-17T05:06:25;10.73;;;5.90;;
53801;SDS011;39709;53.334;6.534;2022-10-17T05:08:53;15.82;;;8.32;;
53801;SDS011;39709;53.334;6.534;2022-10-17T05:11:28;14.77;;;9.32;;
53801;SDS011;39709;53.334;6.534;2022-10-17T05:13:57;9.52;;;4.65;;
53801;SDS011;39709;53.334;6.534;2022-10-17T05:16:24;13.53;;;8.20;;
53801;SDS011;39709;53.334;6.534;2022-10-17T05:18:53;15.55;;;9.48;;
53801;SDS011;39709;53.334;6.534;2022-10-17T05:21:20;14.25;;;8.82;;
53801;SDS011;39709;53.334;6.534;2022-10-17T05:23:47;14.90;;;9.02;;
53801;SDS011;39709;53.334;6.534;2022-10-17T05:26:14;15.73;;;8.73;;
53801;SDS011;39709;53.334;6.534;2022-10-17T05:28:40;15.70;;;9.73;;
53801;SDS011;39709;53.334;6.534;2022-10-17T05:31:06;12.90;;;7.55;;
53801;SDS011;39709;53.334;6.534;2022-10-17T05:33:33;16.27;;;8.45;;
53801;SDS011;39709;53.334;6.534;2022-10-17T05:35:59;15.13;;;7.80;;
53801;SDS011;39709;53.334;6.534;2022-10-17T05:38:25;16.65;;;8.80;;
53801;SDS011;39709;53.334;6.534;2022-10-17T05:40:55;15.13;;;8.63;;
53801;SDS011;39709;53.334;6.534;2022-10-17T05:43:22;18.48;;;9.52;;
53801;SDS011;39709;53.334;6.534;2022-10-17T05:45:48;12.67;;;7.83;;
53801;SDS011;39709;53.334;6.534;2022-10-17T05:48:14;14.88;;;8.50;;
53801;SDS011;39709;53.334;6.534;2022-10-17T05:50:39;18.57;;;10.03;;
53801;SDS011;39709;53.334;6.534;2022-10-17T05:53:05;18.73;;;10.50;;
53801;SDS011;39709;53.334;6.534;2022-10-17T05:55:30;18.50;;;13.67;;
53801;SDS011;39709;53.334;6.534;2022-10-17T05:57:58;17.87;;;10.47;;
53801;SDS011;39709;53.334;6.534;2022-10-17T06:00:24;16.25;;;10.30;;
53801;SDS011;39709;53.334;6.534;2022-10-17T06:02:50;17.85;;;10.55;;
53801;SDS011;39709;53.334;6.534;2022-10-17T06:05:16;16.73;;;8.20;;
53801;SDS011;39709;53.334;6.534;2022-10-17T06:07:42;13.88;;;8.25;;
53801;SDS011;39709;53.334;6.534;2022-10-17T06:10:08;22.73;;;10.65;;
53801;SDS011;39709;53.334;6.534;2022-10-17T06:12:37;17.58;;;9.65;;
53801;SDS011;39709;53.334;6.534;2022-10-17T06:15:03;17.10;;;10.10;;
53801;SDS011;39709;53.334;6.534;2022-10-17T06:17:29;20.13;;;10.40;;
53801;SDS011;39709;53.334;6.534;2022-10-17T06:19:55;17.45;;;9.23;;
53801;SDS011;39709;53.334;6.534;2022-10-17T06:22:21;19.57;;;10.23;;
53801;SDS011;39709;53.334;6.534;2022-10-17T06:24:47;16.83;;;9.88;;
53801;SDS011;39709;53.334;6.534;2022-10-17T06:27:13;17.90;;;10.30;;
53801;SDS011;39709;53.334;6.534;2022-10-17T06:29:38;18.37;;;11.03;;
53801;SDS011;39709;53.334;6.534;2022-10-17T06:32:04;19.63;;;11.02;;
53801;SDS011;39709;53.334;6.534;2022-10-17T06:34:31;17.87;;;10.63;;
53801;SDS011;39709;53.334;6.534;2022-10-17T06:36:56;20.83;;;10.52;;
53801;SDS011;39709;53.334;6.534;2022-10-17T06:39:22;18.47;;;10.43;;
53801;SDS011;39709;53.334;6.534;2022-10-17T06:41:50;18.17;;;10.18;;
53801;SDS011;39709;53.334;6.534;2022-10-17T06:44:16;16.70;;;9.13;;
53801;SDS011;39709;53.334;6.534;2022-10-17T06:46:42;17.97;;;10.77;;
53801;SDS011;39709;53.334;6.534;2022-10-17T06:49:08;18.63;;;10.15;;
53801;SDS011;39709;53.334;6.534;2022-10-17T06:51:35;16.07;;;9.53;;
53801;SDS011;39709;53.334;6.534;2022-10-17T06:54:01;15.70;;;8.80;;
53801;SDS011;39709;53.334;6.534;2022-10-17T06:56:28;18.60;;;9.23;;
53801;SDS011;39709;53.334;6.534;2022-10-17T06:58:53;19.60;;;10.23;;
53801;SDS011;39709;53.334;6.534;2022-10-17T07:01:19;18.77;;;8.90;;
53801;SDS011;39709;53.334;6.534;2022-10-17T07:03:46;15.97;;;9.50;;
53801;SDS011;39709;53.334;6.534;2022-10-17T07:06:13;20.88;;;10.73;;
53801;SDS011;39709;53.334;6.534;2022-10-17T07:08:42;16.35;;;8.80;;
53801;SDS011;39709;53.334;6.534;2022-10-17T07:11:09;17.13;;;9.37;;
53801;SDS011;39709;53.334;6.534;2022-10-17T07:13:36;19.02;;;10.57;;
53801;SDS011;39709;53.334;6.534;2022-10-17T07:16:02;15.43;;;7.80;;
53801;SDS011;39709;53.334;6.534;2022-10-17T07:18:29;15.48;;;9.25;;
53801;SDS011;39709;53.334;6.534;2022-10-17T07:20:54;18.90;;;10.40;;
53801;SDS011;39709;53.334;6.534;2022-10-17T07:23:20;15.73;;;8.30;;
53801;SDS011;39709;53.334;6.534;2022-10-17T07:25:46;14.25;;;7.72;;
53801;SDS011;39709;53.334;6.534;2022-10-17T07:28:13;12.67;;;7.60;;
53801;SDS011;39709;53.334;6.534;2022-10-17T07:30:39;11.88;;;5.88;;
53801;SDS011;39709;53.334;6.534;2022-10-17T07:33:05;10.90;;;5.20;;
53801;SDS011;39709;53.334;6.534;2022-10-17T07:35:31;10.88;;;6.03;;
53801;SDS011;39709;53.334;6.534;2022-10-17T07:37:57;5.93;;;2.53;;
53801;SDS011;39709;53.334;6.534;2022-10-17T07:40:23;8.30;;;2.90;;
53801;SDS011;39709;53.334;6.534;2022-10-17T07:42:48;10.67;;;5.37;;
53801;SDS011;39709;53.334;6.534;2022-10-17T07:45:15;15.25;;;7.60;;
53801;SDS011;39709;53.334;6.534;2022-10-17T07:47:40;13.77;;;7.38;;
53801;SDS011;39709;53.334;6.534;2022-10-17T07:50:06;14.13;;;7.70;;
53801;SDS011;39709;53.334;6.534;2022-10-17T07:52:33;10.13;;;5.28;;
53801;SDS011;39709;53.334;6.534;2022-10-17T07:54:58;8.35;;;4.38;;
53801;SDS011;39709;53.334;6.534;2022-10-17T07:57:24;5.83;;;2.47;;
53801;SDS011;39709;53.334;6.534;2022-10-17T07:59:50;8.45;;;4.05;;
53801;SDS011;39709;53.334;6.534;2022-10-17T08:02:23;12.00;;;5.53;;
53801;SDS011;39709;53.334;6.534;2022-10-17T08:04:50;11.73;;;6.72;;
53801;SDS011;39709;53.334;6.534;2022-10-17T08:07:16;10.07;;;5.50;;
53801;SDS011;39709;53.334;6.534;2022-10-17T08:09:43;5.25;;;2.00;;
53801;SDS011;39709;53.334;6.534;2022-10-17T08:12:10;4.83;;;1.67;;
53801;SDS011;39709;53.334;6.534;2022-10-17T08:14:38;11.45;;;5.72;;
53801;SDS011;39709;53.334;6.534;2022-10-17T08:17:04;10.93;;;5.05;;
53801;SDS011;39709;53.334;6.534;2022-10-17T08:19:30;12.33;;;5.70;;
53801;SDS011;39709;53.334;6.534;2022-10-17T08:21:55;10.02;;;5.13;;
53801;SDS011;39709;53.334;6.534;2022-10-17T08:24:22;8.65;;;3.60;;
53801;SDS011;39709;53.334;6.534;2022-10-17T08:26:48;10.50;;;4.93;;
53801;SDS011;39709;53.334;6.534;2022-10-17T08:29:14;7.65;;;3.10;;
53801;SDS011;39709;53.334;6.534;2022-10-17T08:31:40;10.93;;;4.67;;
53801;SDS011;39709;53.334;6.534;2022-10-17T08:34:06;9.07;;;4.53;;
53801;SDS011;39709;53.334;6.534;2022-10-17T08:36:32;8.98;;;3.33;;
53801;SDS011;39709;53.334;6.534;2022-10-17T08:38:57;10.93;;;4.17;;
53801;SDS011;39709;53.334;6.534;2022-10-17T08:46:41;15.43;;;3.90;;
53801;SDS011;39709;53.334;6.534;2022-10-17T08:49:20;6.80;;;2.65;;
53801;SDS011;39709;53.334;6.534;2022-10-17T08:51:57;7.55;;;3.58;;
53801;SDS011;39709;53.334;6.534;2022-10-17T08:57:16;9.53;;;4.10;;
53801;SDS011;39709;53.334;6.534;2022-10-17T08:59:48;7.10;;;3.20;;
53801;SDS011;39709;53.334;6.534;2022-10-17T09:16:02;7.10;;;2.58;;
53801;SDS011;39709;53.334;6.534;2022-10-17T09:18:42;7.57;;;2.65;;
53801;SDS011;39709;53.334;6.534;2022-10-17T09:23:52;7.80;;;3.33;;
53801;SDS011;39709;53.334;6.534;2022-10-17T09:26:20;4.70;;;1.70;;
53801;SDS011;39709;53.334;6.534;2022-10-17T09:28:57;7.13;;;3.80;;
53801;SDS011;39709;53.334;6.534;2022-10-17T09:31:25;7.47;;;3.22;;
53801;SDS011;39709;53.334;6.534;2022-10-17T09:33:56;6.93;;;3.05;;
53801;SDS011;39709;53.334;6.534;2022-10-17T09:36:28;7.67;;;2.97;;
53801;SDS011;39709;53.334;6.534;2022-10-17T09:38:57;6.57;;;3.05;;
53801;SDS011;39709;53.334;6.534;2022-10-17T09:41:26;7.03;;;2.60;;
53801;SDS011;39709;53.334;6.534;2022-10-17T09:44:16;6.25;;;2.50;;
53801;SDS011;39709;53.334;6.534;2022-10-17T09:46:52;6.30;;;2.90;;
53801;SDS011;39709;53.334;6.534;2022-10-17T09:49:22;7.57;;;3.60;;
53801;SDS011;39709;53.334;6.534;2022-10-17T09:51:56;7.55;;;3.20;;
53801;SDS011;39709;53.334;6.534;2022-10-17T09:54:24;7.47;;;3.30;;
53801;SDS011;39709;53.334;6.534;2022-10-17T09:56:57;7.15;;;2.70;;
53801;SDS011;39709;53.334;6.534;2022-10-17T09:59:37;7.15;;;2.88;;
53801;SDS011;39709;53.334;6.534;2022-10-17T10:02:18;9.40;;;4.47;;
53801;SDS011;39709;53.334;6.534;2022-10-17T10:04:56;8.95;;;4.03;;
53801;SDS011;39709;53.334;6.534;2022-10-17T10:07:43;6.78;;;3.20;;
53801;SDS011;39709;53.334;6.534;2022-10-17T10:10:25;10.75;;;4.55;;
53801;SDS011;39709;53.334;6.534;2022-10-17T10:13:05;8.90;;;3.20;;
53801;SDS011;39709;53.334;6.534;2022-10-17T10:15:39;8.43;;;4.17;;
53801;SDS011;39709;53.334;6.534;2022-10-17T10:23:40;9.63;;;5.07;;
53801;SDS011;39709;53.334;6.534;2022-10-17T10:26:21;9.48;;;5.05;;
53801;SDS011;39709;53.334;6.534;2022-10-17T10:28:50;8.73;;;4.20;;
53801;SDS011;39709;53.334;6.534;2022-10-17T10:31:27;11.43;;;4.25;;
53801;SDS011;39709;53.334;6.534;2022-10-17T10:33:59;7.45;;;3.47;;
53801;SDS011;39709;53.334;6.534;2022-10-17T10:36:40;8.32;;;4.18;;
53801;SDS011;39709;53.334;6.534;2022-10-17T10:39:38;8.90;;;4.32;;
53801;SDS011;39709;53.334;6.534;2022-10-17T10:42:29;12.97;;;6.50;;
53801;SDS011;39709;53.334;6.534;2022-10-17T10:45:02;12.48;;;5.95;;
53801;SDS011;39709;53.334;6.534;2022-10-17T10:47:51;9.98;;;5.63;;
53801;SDS011;39709;53.334;6.534;2022-10-17T10:50:37;11.40;;;6.00;;
53801;SDS011;39709;53.334;6.534;2022-10-17T10:53:28;11.55;;;6.05;;
53801;SDS011;39709;53.334;6.534;2022-10-17T10:56:11;10.10;;;5.43;;
53801;SDS011;39709;53.334;6.534;2022-10-17T10:58:55;10.38;;;6.07;;
53801;SDS011;39709;53.334;6.534;2022-10-17T11:04:02;11.38;;;6.57;;
53801;SDS011;39709;53.334;6.534;2022-10-17T11:06:41;11.40;;;6.20;;
53801;SDS011;39709;53.334;6.534;2022-10-17T11:12:33;13.20;;;5.40;;
53801;SDS011;39709;53.334;6.534;2022-10-17T11:20:11;13.13;;;5.70;;
53801;SDS011;39709;53.334;6.534;2022-10-17T11:22:47;13.67;;;6.67;;
53801;SDS011;39709;53.334;6.534;2022-10-17T11:25:37;9.50;;;6.07;;
53801;SDS011;39709;53.334;6.534;2022-10-17T11:28:07;11.30;;;5.90;;
53801;SDS011;39709;53.334;6.534;2022-10-17T11:33:45;10.98;;;5.80;;
53801;SDS011;39709;53.334;6.534;2022-10-17T11:36:15;14.03;;;6.50;;
53801;SDS011;39709;53.334;6.534;2022-10-17T11:38:45;10.60;;;4.90;;
53801;SDS011;39709;53.334;6.534;2022-10-17T11:41:19;9.57;;;4.68;;
53801;SDS011;39709;53.334;6.534;2022-10-17T11:43:57;12.23;;;6.57;;
53801;SDS011;39709;53.334;6.534;2022-10-17T11:46:29;11.57;;;6.63;;
53801;SDS011;39709;53.334;6.534;2022-10-17T11:51:33;12.52;;;6.95;;
53801;SDS011;39709;53.334;6.534;2022-10-17T11:54:27;11.38;;;6.45;;
53801;SDS011;39709;53.334;6.534;2022-10-17T12:13:47;13.35;;;5.82;;
53801;SDS011;39709;53.334;6.534;2022-10-17T12:19:26;11.82;;;6.15;;
53801;SDS011;39709;53.334;6.534;2022-10-17T12:21:54;10.85;;;4.90;;
53801;SDS011;39709;53.334;6.534;2022-10-17T12:24:42;7.45;;;3.33;;
53801;SDS011;39709;53.334;6.534;2022-10-17T12:27:22;9.60;;;4.30;;
53801;SDS011;39709;53.334;6.534;2022-10-17T12:35:31;8.65;;;4.32;;
53801;SDS011;39709;53.334;6.534;2022-10-17T12:37:59;7.78;;;3.75;;
53801;SDS011;39709;53.334;6.534;2022-10-17T12:45:46;6.95;;;3.22;;
53801;SDS011;39709;53.334;6.534;2022-10-17T12:51:14;9.48;;;3.63;;
53801;SDS011;39709;53.334;6.534;2022-10-17T12:56:36;8.50;;;3.93;;
53801;SDS011;39709;53.334;6.534;2022-10-17T12:59:17;6.45;;;2.63;;
53801;SDS011;39709;53.334;6.534;2022-10-17T13:01:53;7.38;;;3.83;;
53801;SDS011;39709;53.334;6.534;2022-10-17T13:04:22;8.40;;;4.00;;
53801;SDS011;39709;53.334;6.534;2022-10-17T13:06:55;7.93;;;4.20;;
53801;SDS011;39709;53.334;6.534;2022-10-17T13:09:29;8.80;;;4.00;;
53801;SDS011;39709;53.334;6.534;2022-10-17T13:12:03;9.10;;;4.47;;
53801;SDS011;39709;53.334;6.534;2022-10-17T13:14:34;8.52;;;4.82;;
53801;SDS011;39709;53.334;6.534;2022-10-17T13:17:04;8.02;;;4.78;;
53801;SDS011;39709;53.334;6.534;2022-10-17T13:19:38;9.40;;;5.20;;
53801;SDS011;39709;53.334;6.534;2022-10-17T13:22:10;9.83;;;5.20;;
53801;SDS011;39709;53.334;6.534;2022-10-17T13:24:42;9.25;;;5.00;;
53801;SDS011;39709;53.334;6.534;2022-10-17T13:29:57;7.07;;;3.00;;
53801;SDS011;39709;53.334;6.534;2022-10-17T13:32:26;7.57;;;3.40;;
53801;SDS011;39709;53.334;6.534;2022-10-17T13:37:33;6.70;;;3.08;;
53801;SDS011;39709;53.334;6.534;2022-10-17T13:40:00;7.65;;;3.22;;
53801;SDS011;39709;53.334;6.534;2022-10-17T13:42:27;7.93;;;3.47;;
53801;SDS011;39709;53.334;6.534;2022-10-17T13:44:54;8.13;;;3.42;;
53801;SDS011;39709;53.334;6.534;2022-10-17T13:47:26;7.63;;;3.40;;
53801;SDS011;39709;53.334;6.534;2022-10-17T13:49:54;6.65;;;2.70;;
53801;SDS011;39709;53.334;6.534;2022-10-17T13:52:25;6.75;;;2.85;;
53801;SDS011;39709;53.334;6.534;2022-10-17T13:54:52;6.80;;;2.58;;
53801;SDS011;39709;53.334;6.534;2022-10-17T13:59:49;6.33;;;2.60;;
53801;SDS011;39709;53.334;6.534;2022-10-17T14:02:19;6.90;;;2.55;;
53801;SDS011;39709;53.334;6.534;2022-10-17T14:04:48;6.38;;;2.83;;
53801;SDS011;39709;53.334;6.534;2022-10-17T14:07:36;7.20;;;2.80;;
53801;SDS011;39709;53.334;6.534;2022-10-17T14:10:28;8.35;;;3.15;;
53801;SDS011;39709;53.334;6.534;2022-10-17T14:12:57;7.13;;;2.90;;
53801;SDS011;39709;53.334;6.534;2022-10-17T14:15:25;8.48;;;3.20;;
53801;SDS011;39709;53.334;6.534;2022-10-17T14:17:56;7.05;;;3.60;;
53801;SDS011;39709;53.334;6.534;2022-10-17T14:20:27;9.38;;;3.90;;
53801;SDS011;39709;53.334;6.534;2022-10-17T14:22:53;7.43;;;3.08;;
53801;SDS011;39709;53.334;6.534;2022-10-17T14:25:30;7.90;;;3.10;;
53801;SDS011;39709;53.334;6.534;2022-10-17T14:30:36;6.82;;;2.53;;
53801;SDS011;39709;53.334;6.534;2022-10-17T14:33:06;6.72;;;3.22;;
53801;SDS011;39709;53.334;6.534;2022-10-17T14:35:36;8.13;;;2.90;;
53801;SDS011;39709;53.334;6.534;2022-10-17T14:38:04;7.20;;;2.53;;
53801;SDS011;39709;53.334;6.534;2022-10-17T14:40:31;6.28;;;2.75;;
53801;SDS011;39709;53.334;6.534;2022-10-17T14:43:04;8.05;;;2.80;;
53801;SDS011;39709;53.334;6.534;2022-10-17T14:45:32;7.65;;;2.70;;
53801;SDS011;39709;53.334;6.534;2022-10-17T14:51:04;8.00;;;2.73;;
53801;SDS011;39709;53.334;6.534;2022-10-17T14:53:31;5.90;;;2.60;;
53801;SDS011;39709;53.334;6.534;2022-10-17T14:56:20;6.90;;;2.60;;
53801;SDS011;39709;53.334;6.534;2022-10-17T14:58:50;6.22;;;2.63;;
53801;SDS011;39709;53.334;6.534;2022-10-17T15:01:17;6.73;;;3.00;;
53801;SDS011;39709;53.334;6.534;2022-10-17T15:03:43;7.95;;;2.53;;
53801;SDS011;39709;53.334;6.534;2022-10-17T15:06:20;7.90;;;2.83;;
53801;SDS011;39709;53.334;6.534;2022-10-17T15:08:51;8.02;;;2.70;;
53801;SDS011;39709;53.334;6.534;2022-10-17T15:11:16;7.27;;;2.30;;
53801;SDS011;39709;53.334;6.534;2022-10-17T15:13:42;6.97;;;2.35;;
53801;SDS011;39709;53.334;6.534;2022-10-17T15:16:14;5.90;;;2.40;;
53801;SDS011;39709;53.334;6.534;2022-10-17T15:18:41;6.40;;;2.13;;
53801;SDS011;39709;53.334;6.534;2022-10-17T15:21:11;5.57;;;2.37;;
53801;SDS011;39709;53.334;6.534;2022-10-17T15:23:38;6.97;;;2.55;;
53801;SDS011;39709;53.334;6.534;2022-10-17T15:26:46;5.90;;;2.28;;
53801;SDS011;39709;53.334;6.534;2022-10-17T15:28:57;7.15;;;2.30;;
53801;SDS011;39709;53.334;6.534;2022-10-17T15:31:23;9.13;;;2.40;;
53801;SDS011;39709;53.334;6.534;2022-10-17T15:33:50;8.18;;;2.40;;
53801;SDS011;39709;53.334;6.534;2022-10-17T15:36:20;6.05;;;2.20;;
53801;SDS011;39709;53.334;6.534;2022-10-17T15:38:52;5.50;;;1.83;;
53801;SDS011;39709;53.334;6.534;2022-10-17T15:41:19;5.83;;;2.00;;
53801;SDS011;39709;53.334;6.534;2022-10-17T15:43:46;6.85;;;2.00;;
53801;SDS011;39709;53.334;6.534;2022-10-17T15:46:14;8.73;;;2.13;;
53801;SDS011;39709;53.334;6.534;2022-10-17T15:48:54;6.80;;;2.00;;
53801;SDS011;39709;53.334;6.534;2022-10-17T15:51:21;7.43;;;2.22;;
53801;SDS011;39709;53.334;6.534;2022-10-17T15:53:48;7.83;;;2.43;;
53801;SDS011;39709;53.334;6.534;2022-10-17T15:56:29;5.97;;;2.10;;
53801;SDS011;39709;53.334;6.534;2022-10-17T15:59:00;6.03;;;2.35;;
53801;SDS011;39709;53.334;6.534;2022-10-17T16:01:28;7.00;;;2.22;;
53801;SDS011;39709;53.334;6.534;2022-10-17T16:03:55;7.50;;;2.37;;
53801;SDS011;39709;53.334;6.534;2022-10-17T16:06:22;10.45;;;2.72;;
53801;SDS011;39709;53.334;6.534;2022-10-17T16:08:48;9.10;;;2.50;;
53801;SDS011;39709;53.334;6.534;2022-10-17T16:11:27;7.32;;;2.58;;
53801;SDS011;39709;53.334;6.534;2022-10-17T16:13:57;6.78;;;2.42;;
53801;SDS011;39709;53.334;6.534;2022-10-17T16:16:25;10.13;;;3.47;;
53801;SDS011;39709;53.334;6.534;2022-10-17T16:18:51;7.10;;;2.60;;
53801;SDS011;39709;53.334;6.534;2022-10-17T16:21:16;7.45;;;2.63;;
53801;SDS011;39709;53.334;6.534;2022-10-17T16:23:44;9.03;;;2.37;;
53801;SDS011;39709;53.334;6.534;2022-10-17T16:26:10;7.53;;;2.33;;
53801;SDS011;39709;53.334;6.534;2022-10-17T16:28:39;7.07;;;2.50;;
53801;SDS011;39709;53.334;6.534;2022-10-17T16:31:27;8.68;;;2.80;;
53801;SDS011;39709;53.334;6.534;2022-10-17T16:33:59;7.97;;;3.22;;
53801;SDS011;39709;53.334;6.534;2022-10-17T16:36:26;7.63;;;3.47;;
53801;SDS011;39709;53.334;6.534;2022-10-17T16:38:52;8.52;;;2.90;;
53801;SDS011;39709;53.334;6.534;2022-10-17T16:41:22;7.03;;;2.80;;
53801;SDS011;39709;53.334;6.534;2022-10-17T16:43:49;6.85;;;2.75;;
53801;SDS011;39709;53.334;6.534;2022-10-17T16:46:16;8.33;;;3.30;;
53801;SDS011;39709;53.334;6.534;2022-10-17T16:48:42;6.72;;;2.92;;
53801;SDS011;39709;53.334;6.534;2022-10-17T16:51:09;6.78;;;3.17;;
53801;SDS011;39709;53.334;6.534;2022-10-17T16:53:36;7.68;;;3.30;;
53801;SDS011;39709;53.334;6.534;2022-10-17T16:56:08;7.95;;;3.33;;
53801;SDS011;39709;53.334;6.534;2022-10-17T16:58:39;10.30;;;3.50;;
53801;SDS011;39709;53.334;6.534;2022-10-17T17:01:07;8.50;;;3.30;;
53801;SDS011;39709;53.334;6.534;2022-10-17T17:03:35;7.88;;;3.45;;
53801;SDS011;39709;53.334;6.534;2022-10-17T17:06:02;8.35;;;3.40;;
53801;SDS011;39709;53.334;6.534;2022-10-17T17:08:28;7.93;;;3.45;;
53801;SDS011;39709;53.334;6.534;2022-10-17T17:10:54;7.23;;;3.20;;